createdAt,value
2023-03-15T00:00:49.954Z,96.43
2023-03-15T00:03:05.548Z,96.30
2023-03-15T00:05:18.197Z,96.13
2023-03-15T00:07:31.443Z,95.74
2023-03-15T00:09:44.017Z,96.05
2023-03-15T00:11:56.816Z,95.75
2023-03-15T00:14:10.555Z,95.54
2023-03-15T00:16:27.015Z,95.50
2023-03-15T00:18:39.738Z,95.43
2023-03-15T00:20:52.438Z,95.07
2023-03-15T00:23:05.092Z,95.35
2023-03-15T00:25:17.925Z,95.10
2023-03-15T00:27:30.664Z,95.26
2023-03-15T00:29:43.398Z,95.03
2023-03-15T00:31:56.068Z,95.09
2023-03-15T00:34:08.686Z,94.74
2023-03-15T00:36:24.842Z,94.79
2023-03-15T00:38:39.872Z,94.67
2023-03-15T00:40:52.509Z,94.74
2023-03-15T00:43:05.390Z,94.58
2023-03-15T00:45:20.785Z,94.29
2023-03-15T00:47:33.746Z,94.59
2023-03-15T00:49:46.412Z,94.09
2023-03-15T00:51:59.012Z,93.74
2023-03-15T00:54:13.821Z,93.91
2023-03-15T00:56:30.032Z,93.75
2023-03-15T00:58:43.735Z,93.77
2023-03-15T01:00:56.641Z,93.75
2023-03-15T01:03:09.735Z,93.53
2023-03-15T01:05:23.156Z,92.93
2023-03-15T01:07:36.274Z,93.07
2023-03-15T01:09:49.204Z,92.89
2023-03-15T01:12:01.951Z,92.75
2023-03-15T01:14:14.750Z,92.77
2023-03-15T01:16:27.946Z,92.65
2023-03-15T01:18:41.425Z,92.32
2023-03-15T01:20:54.361Z,92.38
2023-03-15T01:23:07.142Z,92.35
2023-03-15T01:25:20.003Z,91.66
2023-03-15T01:27:32.946Z,91.35
2023-03-15T01:29:45.717Z,91.05
2023-03-15T01:31:58.517Z,90.67
2023-03-15T01:34:11.296Z,90.14
2023-03-15T01:36:24.618Z,90.18
2023-03-15T01:38:37.487Z,90.12
2023-03-15T01:40:50.278Z,89.87
2023-03-15T01:43:06.027Z,89.85
2023-03-15T01:45:56.313Z,89.42
2023-03-15T01:48:09.079Z,89.53
2023-03-15T01:50:25.478Z,89.29
2023-03-15T01:52:41.486Z,88.95
2023-03-15T01:55:02.167Z,88.87
2023-03-15T01:57:27.212Z,89.03
2023-03-15T01:59:45.398Z,88.80
2023-03-15T02:02:00.060Z,88.67
2023-03-15T02:04:18.399Z,88.52
2023-03-15T02:06:35.073Z,88.32
2023-03-15T02:08:55.130Z,87.82
2023-03-15T02:11:07.941Z,88.31
2023-03-15T02:13:23.717Z,88.16
2023-03-15T02:15:36.393Z,87.66
2023-03-15T02:17:49.287Z,87.87
2023-03-15T02:20:14.495Z,88.16
2023-03-15T02:22:41.539Z,87.68
2023-03-15T02:25:13.652Z,87.90
2023-03-15T02:27:30.726Z,87.69
2023-03-15T02:29:43.769Z,87.96
2023-03-15T02:31:57.926Z,87.63
2023-03-15T02:34:10.593Z,87.88
2023-03-15T02:37:19.296Z,87.71
2023-03-15T02:39:31.932Z,87.75
2023-03-15T02:41:48.637Z,87.94
2023-03-15T02:44:11.375Z,87.90
2023-03-15T02:46:24.258Z,88.16
2023-03-15T02:48:38.466Z,88.05
2023-03-15T02:50:51.009Z,88.04
2023-03-15T02:53:03.950Z,87.66
2023-03-15T02:55:19.282Z,87.76
2023-03-15T02:57:31.915Z,87.66
2023-03-15T02:59:44.569Z,87.72
2023-03-15T03:01:57.193Z,87.76
2023-03-15T03:04:09.922Z,87.40
2023-03-15T03:06:22.773Z,87.38
2023-03-15T03:08:35.410Z,87.76
2023-03-15T03:10:48.100Z,87.48
2023-03-15T03:13:00.702Z,87.34
2023-03-15T03:15:13.335Z,87.46
2023-03-15T03:17:26.008Z,87.17
2023-03-15T03:19:38.528Z,87.60
2023-03-15T03:21:54.499Z,87.46
2023-03-15T03:24:07.338Z,87.37
2023-03-15T03:26:19.929Z,87.49
2023-03-15T03:28:33.290Z,87.37
2023-03-15T03:30:45.924Z,87.38
2023-03-15T03:32:58.541Z,87.26
2023-03-15T03:35:11.247Z,87.18
2023-03-15T03:37:23.862Z,87.25
2023-03-15T03:39:36.495Z,87.33
2023-03-15T03:41:49.898Z,87.28
2023-03-15T03:44:02.505Z,87.01
2023-03-15T03:46:15.087Z,87.15
2023-03-15T03:48:27.774Z,87.09
2023-03-15T03:50:40.499Z,87.06
2023-03-15T03:52:53.112Z,86.92
2023-03-15T03:55:06.184Z,86.86
2023-03-15T03:57:18.737Z,86.88
2023-03-15T03:59:31.370Z,86.83
2023-03-15T04:01:43.965Z,86.92
2023-03-15T04:03:56.553Z,86.65
2023-03-15T04:06:09.507Z,86.33
2023-03-15T04:08:23.745Z,86.52
2023-03-15T04:10:36.305Z,86.36
2023-03-15T04:12:48.891Z,86.35
2023-03-15T04:15:01.645Z,86.54
2023-03-15T04:17:14.230Z,86.27
2023-03-15T04:19:27.093Z,86.43
2023-03-15T04:21:39.647Z,86.45
2023-03-15T04:23:52.181Z,86.45
2023-03-15T04:26:08.266Z,86.24
2023-03-15T04:28:22.784Z,86.35
2023-03-15T04:30:35.337Z,86.10
2023-03-15T04:32:47.949Z,86.05
2023-03-15T04:35:02.209Z,86.17
2023-03-15T04:37:14.759Z,86.03
2023-03-15T04:39:27.430Z,85.91
2023-03-15T04:41:40.056Z,86.11
2023-03-15T04:43:52.629Z,85.97
2023-03-15T04:46:05.244Z,86.17
2023-03-15T04:48:17.833Z,85.75
2023-03-15T04:50:31.765Z,85.80
2023-03-15T04:52:44.320Z,86.09
2023-03-15T04:54:56.880Z,86.07
2023-03-15T04:57:09.564Z,86.00
2023-03-15T04:59:22.108Z,86.12
2023-03-15T05:01:34.704Z,86.01
2023-03-15T05:03:47.256Z,85.96
2023-03-15T05:06:07.887Z,85.89
2023-03-15T05:08:20.796Z,85.82
2023-03-15T05:10:33.465Z,85.96
2023-03-15T05:12:46.014Z,86.00
2023-03-15T05:14:58.585Z,85.99
2023-03-15T05:17:11.093Z,86.21
2023-03-15T05:19:24.115Z,85.91
2023-03-15T05:21:36.894Z,85.98
2023-03-15T05:23:49.389Z,86.30
2023-03-15T05:26:02.113Z,86.06
2023-03-15T05:28:18.291Z,86.27
2023-03-15T05:30:31.651Z,86.36
2023-03-15T05:32:44.891Z,86.31
2023-03-15T05:34:57.508Z,86.17
2023-03-15T05:37:10.329Z,86.22
2023-03-15T05:39:23.489Z,86.23
2023-03-15T05:41:36.159Z,86.36
2023-03-15T05:43:48.693Z,86.42
2023-03-15T05:46:01.284Z,86.53
2023-03-15T05:48:14.441Z,85.97
2023-03-15T05:50:28.252Z,85.89
2023-03-15T05:52:40.806Z,85.87
2023-03-15T05:54:53.449Z,85.70
2023-03-15T05:57:06.040Z,86.10
2023-03-15T05:59:18.555Z,85.81
2023-03-15T06:01:31.637Z,85.84
2023-03-15T06:03:44.259Z,86.03
2023-03-15T06:05:57.817Z,85.87
2023-03-15T06:08:10.481Z,85.75
2023-03-15T06:10:23.047Z,85.51
2023-03-15T06:12:35.600Z,84.90
2023-03-15T06:14:48.297Z,85.11
2023-03-15T06:17:00.995Z,84.95
2023-03-15T06:19:13.664Z,84.59
2023-03-15T06:21:27.351Z,84.56
2023-03-15T06:23:39.893Z,84.38
2023-03-15T06:25:52.515Z,84.55
2023-03-15T06:28:05.159Z,84.33
2023-03-15T06:30:18.264Z,84.31
2023-03-15T06:32:30.921Z,83.79
2023-03-15T06:34:43.449Z,83.80
2023-03-15T06:36:56.052Z,83.89
2023-03-15T06:39:11.244Z,83.47
2023-03-15T06:41:23.765Z,83.51
2023-03-15T06:43:36.606Z,82.98
2023-03-15T06:45:49.291Z,82.86
2023-03-15T06:48:01.918Z,82.31
2023-03-15T06:50:14.534Z,81.97
2023-03-15T06:52:27.715Z,81.28
2023-03-15T06:54:40.272Z,81.25
2023-03-15T06:56:52.821Z,81.28
2023-03-15T06:59:05.348Z,80.81
2023-03-15T07:01:17.896Z,80.42
2023-03-15T07:03:30.460Z,79.82
2023-03-15T07:05:42.999Z,78.85
2023-03-15T07:07:55.524Z,78.81
2023-03-15T07:10:08.694Z,78.03
2023-03-15T07:12:21.300Z,78.11
2023-03-15T07:14:34.742Z,78.15
2023-03-15T07:16:48.110Z,78.08
2023-03-15T07:19:01.342Z,78.42
2023-03-15T07:21:13.880Z,77.81
2023-03-15T07:23:27.131Z,76.75
2023-03-15T07:25:53.882Z,76.80
2023-03-15T07:28:07.216Z,77.08
2023-03-15T07:30:20.804Z,76.01
2023-03-15T07:32:33.458Z,75.23
2023-03-15T07:34:46.024Z,75.20
2023-03-15T07:36:58.539Z,74.95
2023-03-15T07:39:11.747Z,73.95
2023-03-15T07:41:24.288Z,74.19
2023-03-15T07:43:36.821Z,73.83
2023-03-15T07:45:49.887Z,73.07
2023-03-15T07:48:02.497Z,72.73
2023-03-15T07:50:17.288Z,72.89
2023-03-15T07:52:29.954Z,72.13
2023-03-15T07:54:42.435Z,71.54
2023-03-15T07:56:54.962Z,71.45
2023-03-15T07:59:07.585Z,71.14
2023-03-15T08:01:20.088Z,70.79
2023-03-15T08:03:32.751Z,69.53
2023-03-15T08:05:45.307Z,69.56
2023-03-15T08:07:57.846Z,69.53
2023-03-15T08:10:10.942Z,69.07
2023-03-15T08:12:24.456Z,69.46
2023-03-15T08:14:37.670Z,69.21
2023-03-15T08:16:50.880Z,69.18
2023-03-15T08:19:03.437Z,69.65
2023-03-15T08:21:16.020Z,69.88
2023-03-15T08:23:28.555Z,69.71
2023-03-15T08:25:41.656Z,69.73
2023-03-15T08:27:54.311Z,68.79
2023-03-15T08:30:07.559Z,67.47
2023-03-15T08:32:21.476Z,67.42
2023-03-15T08:34:35.239Z,67.42
2023-03-15T08:36:48.627Z,66.37
2023-03-15T08:39:01.192Z,65.64
2023-03-15T08:41:13.702Z,65.83
2023-03-15T08:43:26.586Z,65.25
2023-03-15T08:45:56.873Z,64.04
2023-03-15T08:48:14.313Z,62.93
2023-03-15T08:50:28.535Z,62.28
2023-03-15T08:52:41.822Z,62.33
2023-03-15T08:54:54.394Z,62.30
2023-03-15T08:57:06.961Z,62.07
2023-03-15T08:59:31.521Z,62.51
2023-03-15T09:01:44.918Z,62.10
2023-03-15T09:03:57.542Z,62.10
2023-03-15T09:06:10.136Z,62.19
2023-03-15T09:08:25.232Z,61.77
2023-03-15T09:10:37.792Z,61.28
2023-03-15T09:12:53.659Z,61.61
2023-03-15T09:15:07.984Z,61.77
2023-03-15T09:17:21.078Z,62.13
2023-03-15T09:19:33.734Z,61.78
2023-03-15T09:21:47.193Z,60.82
2023-03-15T09:23:59.789Z,58.44
2023-03-15T09:26:12.278Z,57.71
2023-03-15T09:28:27.885Z,58.47
2023-03-15T09:30:41.357Z,59.10
2023-03-15T09:32:53.909Z,59.00
2023-03-15T09:35:08.906Z,58.00
2023-03-15T09:37:21.935Z,57.81
2023-03-15T09:39:34.505Z,58.31
2023-03-15T09:41:58.920Z,58.60
2023-03-15T09:44:38.253Z,57.58
2023-03-15T09:47:28.499Z,58.44
2023-03-15T09:50:18.059Z,58.30
2023-03-15T09:52:37.285Z,57.85
2023-03-15T09:54:56.858Z,57.47
2023-03-15T09:57:23.838Z,57.50
2023-03-15T09:59:42.917Z,56.16
2023-03-15T10:01:57.721Z,56.65
2023-03-15T10:04:18.994Z,56.76
2023-03-15T10:06:36.474Z,56.87
2023-03-15T10:08:53.494Z,56.51
2023-03-15T10:11:18.858Z,56.50
2023-03-15T10:13:42.527Z,56.16
2023-03-15T10:16:35.136Z,55.09
2023-03-15T10:19:13.795Z,54.12
2023-03-15T10:21:49.464Z,51.61
2023-03-15T10:24:04.301Z,50.14
2023-03-15T10:26:23.019Z,51.41
2023-03-15T10:28:37.607Z,51.27
2023-03-15T10:30:51.540Z,50.54
2023-03-15T10:33:15.715Z,49.93
2023-03-15T10:35:28.682Z,49.52
2023-03-15T10:37:42.620Z,49.46
2023-03-15T10:39:58.235Z,49.58
2023-03-15T10:42:27.056Z,48.88
2023-03-15T10:44:39.545Z,47.45
2023-03-15T10:47:23.685Z,47.63
2023-03-15T10:49:39.149Z,45.49
2023-03-15T10:51:51.915Z,46.66
2023-03-15T10:54:24.021Z,47.39
2023-03-15T10:56:45.444Z,48.16
2023-03-15T10:59:11.953Z,48.45
2023-03-15T11:01:28.603Z,48.23
2023-03-15T11:03:43.976Z,47.70
2023-03-15T11:05:58.828Z,48.43
2023-03-15T11:08:14.747Z,48.74
2023-03-15T11:10:29.535Z,48.29
2023-03-15T11:12:42.500Z,47.88
2023-03-15T11:15:04.155Z,46.72
2023-03-15T11:17:26.699Z,46.54
2023-03-15T11:19:42.471Z,46.21
2023-03-15T11:21:56.343Z,46.24
2023-03-15T11:24:20.976Z,46.03
2023-03-15T11:26:37.791Z,46.43
2023-03-15T11:28:54.103Z,46.06
2023-03-15T11:31:06.856Z,46.50
2023-03-15T11:33:51.250Z,46.25
2023-03-15T11:36:13.416Z,46.51
2023-03-15T11:38:35.040Z,46.63
2023-03-15T11:40:53.561Z,46.79
2023-03-15T11:43:23.096Z,46.67
2023-03-15T11:45:42.550Z,46.86
2023-03-15T11:47:59.689Z,47.41
2023-03-15T11:50:15.602Z,47.52
2023-03-15T11:52:29.702Z,47.93
2023-03-15T11:54:44.974Z,48.22
2023-03-15T11:57:28.314Z,48.25
2023-03-15T11:59:45.886Z,48.45
2023-03-15T12:02:26.283Z,48.34
2023-03-15T12:04:44.661Z,47.42
2023-03-15T12:06:59.648Z,46.92
2023-03-15T12:09:40.586Z,46.39
2023-03-15T12:11:58.551Z,45.80
2023-03-15T12:14:27.163Z,44.96
2023-03-15T12:16:45.959Z,44.61
2023-03-15T12:19:01.406Z,44.74
2023-03-15T12:21:35.409Z,44.43
2023-03-15T12:23:58.922Z,45.22
2023-03-15T12:26:23.173Z,45.71
2023-03-15T12:29:09.872Z,45.38
2023-03-15T12:31:22.715Z,45.20
2023-03-15T12:33:58.381Z,44.75
2023-03-15T12:36:20.034Z,45.06
2023-03-15T12:38:37.614Z,45.46
2023-03-15T12:40:56.663Z,45.77
2023-03-15T12:43:12.235Z,46.26
2023-03-15T12:45:27.796Z,46.41
2023-03-15T12:48:09.828Z,46.58
2023-03-15T12:50:44.703Z,46.69
2023-03-15T12:53:00.646Z,46.60
2023-03-15T12:55:18.395Z,46.20
2023-03-15T12:57:39.101Z,45.81
2023-03-15T12:59:55.959Z,46.13
2023-03-15T13:02:32.481Z,46.69
2023-03-15T13:05:09.330Z,46.69
2023-03-15T13:07:50.758Z,47.06
2023-03-15T13:10:22.072Z,47.19
2023-03-15T13:12:42.569Z,47.32
2023-03-15T13:15:19.399Z,47.43
2023-03-15T13:17:52.491Z,47.60
2023-03-15T13:20:23.423Z,47.61
2023-03-15T13:23:15.034Z,46.95
2023-03-15T13:25:39.537Z,47.27
2023-03-15T13:27:56.686Z,47.09
2023-03-15T13:30:37.202Z,46.83
2023-03-15T13:33:02.312Z,46.67
2023-03-15T13:35:23.933Z,46.91
2023-03-15T13:37:42.205Z,47.39
2023-03-15T13:39:57.433Z,47.64
2023-03-15T13:42:24.126Z,48.04
2023-03-15T13:44:36.684Z,48.65
2023-03-15T13:46:50.481Z,49.06
2023-03-15T13:49:03.061Z,49.22
2023-03-15T13:51:28.012Z,49.68
2023-03-15T13:53:49.568Z,49.80
2023-03-15T13:56:07.682Z,50.12
2023-03-15T13:58:23.542Z,50.09
2023-03-15T14:00:37.025Z,50.55
2023-03-15T14:03:00.662Z,50.35
2023-03-15T14:05:16.692Z,49.66
2023-03-15T14:07:41.782Z,49.70
2023-03-15T14:10:21.668Z,50.04
2023-03-15T14:12:34.854Z,50.00
2023-03-15T14:14:53.145Z,50.45
2023-03-15T14:17:27.144Z,50.86
2023-03-15T14:19:40.322Z,51.07
2023-03-15T14:22:03.139Z,51.11
2023-03-15T14:24:36.332Z,51.47
2023-03-15T14:26:54.697Z,51.74
2023-03-15T14:29:16.521Z,51.91
2023-03-15T14:31:32.306Z,52.09
2023-03-15T14:33:54.038Z,52.44
2023-03-15T14:36:25.222Z,52.82
2023-03-15T14:38:39.250Z,52.97
2023-03-15T14:40:53.462Z,52.95
2023-03-15T14:43:09.254Z,53.55
2023-03-15T14:45:22.418Z,53.29
2023-03-15T14:47:55.013Z,53.42
2023-03-15T14:50:18.284Z,53.40
2023-03-15T14:52:33.002Z,53.74
2023-03-15T14:54:49.639Z,53.77
2023-03-15T14:57:02.408Z,54.45
2023-03-15T14:59:15.062Z,55.86
2023-03-15T15:01:28.127Z,56.77
2023-03-15T15:03:47.019Z,57.26
2023-03-15T15:06:01.128Z,57.71
2023-03-15T15:08:18.058Z,58.31
2023-03-15T15:10:32.145Z,59.05
2023-03-15T15:12:46.709Z,59.92
2023-03-15T15:15:01.044Z,60.46
2023-03-15T15:17:13.820Z,61.22
2023-03-15T15:19:26.390Z,61.76
2023-03-15T15:21:39.542Z,61.93
2023-03-15T15:23:58.611Z,62.33
2023-03-15T15:26:20.644Z,62.86
2023-03-15T15:28:36.851Z,63.67
2023-03-15T15:30:52.137Z,63.50
2023-03-15T15:33:05.877Z,63.88
2023-03-15T15:35:20.053Z,63.69
2023-03-15T15:37:32.595Z,63.90
2023-03-15T15:39:45.157Z,64.51
2023-03-15T15:41:57.787Z,64.71
2023-03-15T15:44:19.953Z,64.80
2023-03-15T15:46:32.931Z,64.71
2023-03-15T15:48:45.745Z,64.51
2023-03-15T15:50:58.290Z,64.68
2023-03-15T15:53:16.364Z,64.37
2023-03-15T15:55:33.628Z,64.14
2023-03-15T15:57:49.569Z,63.88
2023-03-15T16:00:02.256Z,63.63
2023-03-15T16:02:21.997Z,62.85
2023-03-15T16:04:34.710Z,62.76
2023-03-15T16:06:53.683Z,62.60
2023-03-15T16:09:08.376Z,62.41
2023-03-15T16:11:21.157Z,62.49
2023-03-15T16:13:33.804Z,62.62
2023-03-15T16:15:46.392Z,62.71
2023-03-15T16:18:01.146Z,63.12
2023-03-15T16:20:18.335Z,63.25
2023-03-15T16:22:31.709Z,63.37
2023-03-15T16:24:47.165Z,63.53
2023-03-15T16:27:05.372Z,63.88
2023-03-15T16:29:22.280Z,64.22
2023-03-15T16:31:35.197Z,64.52
2023-03-15T16:33:48.804Z,64.78
2023-03-15T16:36:02.629Z,65.58
2023-03-15T16:38:23.867Z,66.10
2023-03-15T16:40:41.130Z,66.47
2023-03-15T16:42:54.518Z,67.60
2023-03-15T16:45:13.953Z,68.54
2023-03-15T16:47:26.659Z,68.71
2023-03-15T16:49:39.266Z,69.06
2023-03-15T16:51:53.530Z,69.83
2023-03-15T16:54:19.579Z,70.11
2023-03-15T16:56:37.125Z,70.34
2023-03-15T16:58:52.681Z,70.75
2023-03-15T17:01:08.203Z,71.33
2023-03-15T17:03:21.312Z,71.71
2023-03-15T17:05:33.928Z,71.97
2023-03-15T17:07:48.864Z,72.15
2023-03-15T17:10:08.236Z,72.42
2023-03-15T17:12:24.896Z,72.61
2023-03-15T17:14:38.835Z,73.00
2023-03-15T17:16:51.377Z,73.01
2023-03-15T17:19:04.339Z,73.36
2023-03-15T17:21:20.474Z,73.56
2023-03-15T17:23:33.138Z,73.90
2023-03-15T17:25:45.710Z,73.85
2023-03-15T17:27:58.257Z,74.18
2023-03-15T17:30:19.508Z,74.23
2023-03-15T17:32:32.130Z,74.12
2023-03-15T17:34:47.193Z,74.36
2023-03-15T17:36:59.810Z,74.49
2023-03-15T17:39:17.044Z,74.86
2023-03-15T17:41:36.955Z,75.10
2023-03-15T17:43:51.607Z,75.16
2023-03-15T17:46:04.217Z,75.46
2023-03-15T17:48:16.838Z,75.51
2023-03-15T17:50:32.339Z,75.46
2023-03-15T17:52:46.400Z,75.85
2023-03-15T17:54:58.917Z,75.60
2023-03-15T17:57:12.900Z,75.69
2023-03-15T17:59:25.461Z,75.65
2023-03-15T18:01:40.758Z,75.80
2023-03-15T18:03:54.459Z,75.97
2023-03-15T18:06:07.384Z,75.84
2023-03-15T18:08:21.335Z,76.27
2023-03-15T18:10:36.874Z,76.43
2023-03-15T18:12:49.524Z,76.57
2023-03-15T18:15:02.960Z,77.00
2023-03-15T18:17:15.682Z,77.23
2023-03-15T18:19:28.499Z,77.63
2023-03-15T18:21:41.087Z,77.99
2023-03-15T18:23:54.148Z,77.99
2023-03-15T18:26:07.008Z,78.08
2023-03-15T18:28:19.549Z,78.34
2023-03-15T18:30:32.161Z,78.41
2023-03-15T18:32:45.488Z,78.54
2023-03-15T18:34:58.145Z,78.56
2023-03-15T18:37:11.683Z,78.10
2023-03-15T18:39:25.238Z,78.29
2023-03-15T18:41:37.820Z,78.04
2023-03-15T18:43:51.659Z,78.33
2023-03-15T18:46:04.340Z,78.14
2023-03-15T18:48:18.394Z,78.06
2023-03-15T18:50:33.679Z,78.27
2023-03-15T18:52:46.396Z,78.31
2023-03-15T18:54:59.033Z,78.89
2023-03-15T18:57:11.652Z,78.92
2023-03-15T18:59:25.851Z,79.16
2023-03-15T19:01:38.746Z,79.46
2023-03-15T19:03:52.697Z,79.72
2023-03-15T19:06:07.682Z,79.95
2023-03-15T19:08:20.357Z,80.31
2023-03-15T19:10:33.024Z,80.33
2023-03-15T19:12:46.909Z,80.54
2023-03-15T19:14:59.550Z,80.75
2023-03-15T19:17:12.266Z,80.79
2023-03-15T19:19:24.873Z,81.31
2023-03-15T19:21:38.814Z,81.50
2023-03-15T19:23:51.402Z,81.68
2023-03-15T19:26:04.623Z,81.80
2023-03-15T19:28:17.274Z,81.90
2023-03-15T19:30:30.871Z,82.30
2023-03-15T19:32:46.792Z,82.27
2023-03-15T19:34:59.365Z,82.39
2023-03-15T19:37:12.167Z,82.29
2023-03-15T19:39:24.848Z,82.33
2023-03-15T19:41:37.596Z,82.44
2023-03-15T19:43:50.184Z,82.37
2023-03-15T19:46:05.122Z,82.45
2023-03-15T19:48:17.737Z,82.23
2023-03-15T19:50:32.452Z,82.15
2023-03-15T19:52:48.228Z,82.28
2023-03-15T19:55:01.187Z,82.27
2023-03-15T19:57:14.242Z,82.41
2023-03-15T19:59:27.297Z,82.42
2023-03-15T20:01:39.998Z,82.80
2023-03-15T20:03:52.619Z,82.72
2023-03-15T20:06:07.840Z,82.73
2023-03-15T20:08:20.867Z,82.75
2023-03-15T20:10:33.590Z,82.71
2023-03-15T20:12:47.169Z,82.59
2023-03-15T20:14:59.768Z,82.54
2023-03-15T20:17:12.396Z,82.56
2023-03-15T20:19:24.980Z,82.43
2023-03-15T20:21:37.831Z,82.35
2023-03-15T20:23:50.509Z,82.36
2023-03-15T20:26:10.716Z,82.24
2023-03-15T20:28:23.461Z,82.21
2023-03-15T20:30:39.150Z,82.22
2023-03-15T20:32:52.084Z,82.14
2023-03-15T20:35:09.023Z,82.03
2023-03-15T20:37:22.843Z,82.14
2023-03-15T20:39:35.424Z,82.10
2023-03-15T20:41:48.039Z,82.18
2023-03-15T20:44:01.269Z,82.18
2023-03-15T20:46:16.649Z,82.27
2023-03-15T20:48:31.496Z,82.26
2023-03-15T20:50:46.800Z,82.40
2023-03-15T20:52:59.348Z,82.34
2023-03-15T20:55:13.654Z,82.63
2023-03-15T20:57:26.371Z,82.78
2023-03-15T20:59:39.784Z,83.01
2023-03-15T21:01:52.737Z,82.98
2023-03-15T21:04:05.478Z,83.09
2023-03-15T21:06:18.052Z,83.15
2023-03-15T21:08:31.221Z,83.17
2023-03-15T21:10:43.842Z,83.38
2023-03-15T21:12:56.410Z,83.26
2023-03-15T21:15:09.349Z,83.66
2023-03-15T21:17:21.890Z,84.15
2023-03-15T21:19:34.456Z,84.25
2023-03-15T21:21:48.654Z,84.35
2023-03-15T21:24:02.140Z,84.85
2023-03-15T21:26:14.883Z,85.22
2023-03-15T21:28:28.248Z,85.68
2023-03-15T21:30:41.125Z,85.83
2023-03-15T21:32:53.753Z,86.01
2023-03-15T21:35:07.368Z,86.31
2023-03-15T21:37:20.076Z,86.34
2023-03-15T21:39:32.645Z,86.91
2023-03-15T21:41:45.250Z,86.77
2023-03-15T21:43:57.793Z,86.82
2023-03-15T21:46:13.843Z,86.80
2023-03-15T21:48:27.019Z,87.04
2023-03-15T21:50:39.879Z,86.89
2023-03-15T21:52:52.821Z,87.10
2023-03-15T21:55:06.422Z,87.05
2023-03-15T21:57:19.266Z,87.17
2023-03-15T21:59:32.109Z,87.32
2023-03-15T22:01:44.771Z,87.38
2023-03-15T22:03:57.332Z,87.44
2023-03-15T22:06:12.967Z,87.46
2023-03-15T22:08:26.245Z,87.50
2023-03-15T22:10:38.811Z,87.48
2023-03-15T22:12:53.866Z,87.72
2023-03-15T22:15:07.702Z,87.63
2023-03-15T22:17:20.276Z,87.41
2023-03-15T22:19:33.009Z,87.34
2023-03-15T22:21:45.573Z,87.07
2023-03-15T22:23:58.287Z,87.05
2023-03-15T22:26:11.101Z,86.56
2023-03-15T22:28:25.129Z,86.69
2023-03-15T22:30:37.794Z,86.60
2023-03-15T22:32:50.515Z,86.67
2023-03-15T22:35:04.331Z,86.65
2023-03-15T22:37:16.942Z,86.82
2023-03-15T22:39:31.275Z,86.91
2023-03-15T22:41:43.851Z,87.00
2023-03-15T22:43:57.640Z,87.16
2023-03-15T22:46:10.274Z,87.20
2023-03-15T22:48:23.234Z,87.18
2023-03-15T22:50:35.794Z,87.17
2023-03-15T22:52:48.501Z,87.06
2023-03-15T22:55:01.110Z,87.15
2023-03-15T22:57:13.847Z,87.51
2023-03-15T22:59:28.956Z,87.30
2023-03-15T23:01:41.600Z,87.10
2023-03-15T23:03:54.247Z,87.15
2023-03-15T23:06:06.937Z,87.29
2023-03-15T23:08:19.612Z,87.39
2023-03-15T23:10:33.048Z,87.50
2023-03-15T23:12:45.998Z,87.63
2023-03-15T23:14:58.696Z,87.78
2023-03-15T23:17:11.400Z,87.84
2023-03-15T23:19:23.969Z,87.74
2023-03-15T23:21:36.633Z,87.68
2023-03-15T23:23:49.261Z,87.97
2023-03-15T23:26:02.439Z,87.96
2023-03-15T23:28:17.342Z,87.82
2023-03-15T23:30:35.473Z,87.94
2023-03-15T23:32:49.452Z,87.84
2023-03-15T23:35:03.857Z,88.14
2023-03-15T23:37:16.819Z,88.32
2023-03-15T23:39:29.645Z,88.19
2023-03-15T23:41:45.668Z,89.20
2023-03-15T23:43:58.312Z,89.34
2023-03-15T23:46:14.542Z,89.38
2023-03-15T23:48:27.786Z,89.83
2023-03-15T23:50:45.173Z,90.63
2023-03-15T23:52:57.808Z,90.28
2023-03-15T23:55:11.570Z,90.70
2023-03-15T23:57:24.358Z,90.66
2023-03-15T23:59:38.644Z,90.86
